Edson, Kansas
Current Conditions -  °F | °C
As of 3:53 PM on Tuesday 25 Nov 2014 (Local Time) from KGLD Reporting Station
Overcast Overcast  
Wind Chill: 42°   Ceiling: 11000
Heat Index: 47°   Visibility: 10mi
Dew Point: 10°   Wind: 10mph
Humidity: 22%   Direction: 230°SW
Pressure: 29.87"   Gusts: NA
Location:  39.34°N, 101.54°W
Report Text: KGLD 252253Z AUTO 23009KT 10SM OVC110 08/M12 A2987 RMK AO2 SLP131 T00831122
Loading
Personal Weather Stations






























Interactive Weather Map New forecast layout! Learn more

10-Day Weather Forecast

Advertisements
Track Severe Weather on mobile